sensor_id;sensor_type;location;lat;lon;timestamp;pressure;altitude;pressure_sealevel;temperature;humidity
48968;BME280;46511;53.148;8.204;2023-02-21T00:00:36;101551.34;;;11.04;100.00
48968;BME280;46511;53.148;8.204;2023-02-21T00:03:25;101543.88;;;11.50;100.00
48968;BME280;46511;53.148;8.204;2023-02-21T00:06:15;101549.47;;;11.44;100.00
48968;BME280;46511;53.148;8.204;2023-02-21T00:09:05;101548.63;;;11.25;100.00
48968;BME280;46511;53.148;8.204;2023-02-21T00:11:54;101558.19;;;11.29;100.00
48968;BME280;46511;53.148;8.204;2023-02-21T00:14:44;101549.91;;;11.35;100.00
48968;BME280;46511;53.148;8.204;2023-02-21T00:17:33;101548.78;;;11.22;100.00
48968;BME280;46511;53.148;8.204;2023-02-21T00:20:23;101548.19;;;11.15;100.00
48968;BME280;46511;53.148;8.204;2023-02-21T00:23:13;101554.66;;;11.47;100.00
48968;BME280;46511;53.148;8.204;2023-02-21T00:26:03;101556.72;;;11.59;100.00
48968;BME280;46511;53.148;8.204;2023-02-21T00:28:53;101551.34;;;11.42;100.00
48968;BME280;46511;53.148;8.204;2023-02-21T00:31:43;101552.03;;;11.64;100.00
48968;BME280;46511;53.148;8.204;2023-02-21T00:34:32;101566.06;;;11.68;100.00
48968;BME280;46511;53.148;8.204;2023-02-21T00:37:22;101562.38;;;11.70;100.00
48968;BME280;46511;53.148;8.204;2023-02-21T00:40:12;101551.06;;;11.48;100.00
48968;BME280;46511;53.148;8.204;2023-02-21T00:43:04;101549.25;;;11.49;100.00
48968;BME280;46511;53.148;8.204;2023-02-21T00:45:53;101556.47;;;11.64;100.00
48968;BME280;46511;53.148;8.204;2023-02-21T00:48:44;101549.34;;;11.64;100.00
48968;BME280;46511;53.148;8.204;2023-02-21T00:51:33;101553.28;;;11.74;100.00
48968;BME280;46511;53.148;8.204;2023-02-21T00:54:18;101545.81;;;11.83;100.00
48968;BME280;46511;53.148;8.204;2023-02-21T00:57:07;101548.75;;;11.59;100.00
48968;BME280;46511;53.148;8.204;2023-02-21T00:59:57;101551.00;;;11.31;100.00
48968;BME280;46511;53.148;8.204;2023-02-21T01:02:47;101558.13;;;11.30;100.00
48968;BME280;46511;53.148;8.204;2023-02-21T01:05:37;101552.63;;;11.52;100.00
48968;BME280;46511;53.148;8.204;2023-02-21T01:08:27;101565.00;;;11.15;100.00
48968;BME280;46511;53.148;8.204;2023-02-21T01:11:17;101576.75;;;11.11;100.00
48968;BME280;46511;53.148;8.204;2023-02-21T01:14:08;101575.66;;;11.15;100.00
48968;BME280;46511;53.148;8.204;2023-02-21T01:16:58;101572.63;;;11.42;100.00
48968;BME280;46511;53.148;8.204;2023-02-21T01:19:47;101569.63;;;11.31;100.00
48968;BME280;46511;53.148;8.204;2023-02-21T01:22:37;101587.16;;;11.16;100.00
48968;BME280;46511;53.148;8.204;2023-02-21T01:25:27;101588.44;;;11.45;100.00
48968;BME280;46511;53.148;8.204;2023-02-21T01:28:17;101586.16;;;11.19;100.00
48968;BME280;46511;53.148;8.204;2023-02-21T01:31:07;101575.78;;;11.50;100.00
48968;BME280;46511;53.148;8.204;2023-02-21T01:33:56;101580.69;;;11.40;100.00
48968;BME280;46511;53.148;8.204;2023-02-21T01:36:46;101586.28;;;11.34;100.00
48968;BME280;46511;53.148;8.204;2023-02-21T01:39:36;101585.50;;;11.32;100.00
48968;BME280;46511;53.148;8.204;2023-02-21T01:42:26;101594.19;;;11.55;100.00
48968;BME280;46511;53.148;8.204;2023-02-21T01:48:16;101592.78;;;11.29;100.00
48968;BME280;46511;53.148;8.204;2023-02-21T01:51:09;101592.47;;;11.35;100.00
48968;BME280;46511;53.148;8.204;2023-02-21T01:54:01;101592.03;;;11.44;100.00
48968;BME280;46511;53.148;8.204;2023-02-21T01:56:52;101576.44;;;11.18;100.00
48968;BME280;46511;53.148;8.204;2023-02-21T01:59:43;101579.66;;;11.05;100.00
48968;BME280;46511;53.148;8.204;2023-02-21T02:02:35;101574.06;;;11.11;100.00
48968;BME280;46511;53.148;8.204;2023-02-21T02:05:31;101572.47;;;11.07;100.00
48968;BME280;46511;53.148;8.204;2023-02-21T02:08:24;101572.06;;;11.16;100.00
48968;BME280;46511;53.148;8.204;2023-02-21T02:32:00;101587.78;;;11.02;100.00
48968;BME280;46511;53.148;8.204;2023-02-21T02:40:35;101596.91;;;11.15;100.00
48968;BME280;46511;53.148;8.204;2023-02-21T02:43:31;101584.13;;;11.24;100.00
48968;BME280;46511;53.148;8.204;2023-02-21T02:46:13;101593.31;;;11.16;100.00
48968;BME280;46511;53.148;8.204;2023-02-21T02:48:59;101596.72;;;11.01;100.00
48968;BME280;46511;53.148;8.204;2023-02-21T02:51:35;101602.56;;;11.47;100.00
48968;BME280;46511;53.148;8.204;2023-02-21T02:54:06;101599.06;;;11.07;100.00
48968;BME280;46511;53.148;8.204;2023-02-21T02:56:38;101591.59;;;11.15;100.00
48968;BME280;46511;53.148;8.204;2023-02-21T02:59:10;101600.81;;;11.27;100.00
48968;BME280;46511;53.148;8.204;2023-02-21T03:05:04;101607.97;;;11.06;100.00
48968;BME280;46511;53.148;8.204;2023-02-21T03:07:28;101612.78;;;10.98;100.00
48968;BME280;46511;53.148;8.204;2023-02-21T03:10:27;101608.41;;;10.97;100.00
48968;BME280;46511;53.148;8.204;2023-02-21T03:16:25;101616.59;;;10.93;100.00
48968;BME280;46511;53.148;8.204;2023-02-21T03:21:44;101619.03;;;10.97;100.00
48968;BME280;46511;53.148;8.204;2023-02-21T03:24:19;101618.91;;;11.00;100.00
48968;BME280;46511;53.148;8.204;2023-02-21T03:26:55;101618.91;;;11.00;100.00
48968;BME280;46511;53.148;8.204;2023-02-21T03:29:30;101624.75;;;10.88;100.00
48968;BME280;46511;53.148;8.204;2023-02-21T03:32:36;101622.22;;;11.05;100.00
48968;BME280;46511;53.148;8.204;2023-02-21T03:35:00;101630.75;;;10.93;100.00
48968;BME280;46511;53.148;8.204;2023-02-21T03:37:33;101620.84;;;10.76;100.00
48968;BME280;46511;53.148;8.204;2023-02-21T03:40:20;101619.13;;;11.14;100.00
48968;BME280;46511;53.148;8.204;2023-02-21T03:42:55;101614.03;;;11.10;100.00
48968;BME280;46511;53.148;8.204;2023-02-21T03:45:27;101625.63;;;11.09;100.00
48968;BME280;46511;53.148;8.204;2023-02-21T03:47:58;101625.19;;;11.18;100.00
48968;BME280;46511;53.148;8.204;2023-02-21T03:50:30;101622.78;;;10.93;100.00
48968;BME280;46511;53.148;8.204;2023-02-21T03:53:01;101626.38;;;10.92;100.00
48968;BME280;46511;53.148;8.204;2023-02-21T03:55:33;101631.28;;;11.01;100.00
48968;BME280;46511;53.148;8.204;2023-02-21T03:58:04;101642.53;;;11.06;100.00
48968;BME280;46511;53.148;8.204;2023-02-21T04:00:35;101622.44;;;10.60;100.00
48968;BME280;46511;53.148;8.204;2023-02-21T04:03:06;101635.53;;;10.85;100.00
48968;BME280;46511;53.148;8.204;2023-02-21T04:05:38;101641.16;;;10.98;100.00
48968;BME280;46511;53.148;8.204;2023-02-21T04:08:09;101639.31;;;11.00;100.00
48968;BME280;46511;53.148;8.204;2023-02-21T04:10:40;101630.97;;;11.07;100.00
48968;BME280;46511;53.148;8.204;2023-02-21T04:13:11;101630.34;;;11.02;100.00
48968;BME280;46511;53.148;8.204;2023-02-21T04:15:43;101633.31;;;10.95;100.00
48968;BME280;46511;53.148;8.204;2023-02-21T04:18:14;101627.81;;;10.99;100.00
48968;BME280;46511;53.148;8.204;2023-02-21T04:20:46;101628.56;;;11.22;100.00
48968;BME280;46511;53.148;8.204;2023-02-21T04:23:18;101634.72;;;11.03;100.00
48968;BME280;46511;53.148;8.204;2023-02-21T04:25:50;101626.38;;;10.92;100.00
48968;BME280;46511;53.148;8.204;2023-02-21T04:28:21;101629.66;;;10.97;100.00
48968;BME280;46511;53.148;8.204;2023-02-21T04:30:53;101629.63;;;11.18;100.00
48968;BME280;46511;53.148;8.204;2023-02-21T04:33:24;101622.72;;;10.74;100.00
48968;BME280;46511;53.148;8.204;2023-02-21T04:35:55;101625.00;;;11.02;100.00
48968;BME280;46511;53.148;8.204;2023-02-21T04:38:27;101624.06;;;11.03;100.00
48968;BME280;46511;53.148;8.204;2023-02-21T04:40:58;101620.66;;;11.20;100.00
48968;BME280;46511;53.148;8.204;2023-02-21T04:43:29;101622.03;;;10.90;100.00
48968;BME280;46511;53.148;8.204;2023-02-21T04:46:00;101630.44;;;11.20;100.00
48968;BME280;46511;53.148;8.204;2023-02-21T04:48:32;101622.63;;;10.96;100.00
48968;BME280;46511;53.148;8.204;2023-02-21T04:51:03;101623.00;;;11.07;100.00
48968;BME280;46511;53.148;8.204;2023-02-21T04:53:34;101623.41;;;10.98;100.00
48968;BME280;46511;53.148;8.204;2023-02-21T04:56:06;101617.66;;;11.28;100.00
48968;BME280;46511;53.148;8.204;2023-02-21T04:58:37;101618.91;;;11.00;100.00
48968;BME280;46511;53.148;8.204;2023-02-21T05:01:11;101603.97;;;11.35;100.00
48968;BME280;46511;53.148;8.204;2023-02-21T05:03:44;101607.56;;;11.15;100.00
48968;BME280;46511;53.148;8.204;2023-02-21T05:06:16;101601.66;;;10.90;100.00
48968;BME280;46511;53.148;8.204;2023-02-21T05:08:52;101612.28;;;10.70;100.00
48968;BME280;46511;53.148;8.204;2023-02-21T05:11:24;101606.88;;;11.31;100.00
48968;BME280;46511;53.148;8.204;2023-02-21T05:13:56;101605.91;;;11.13;100.00
48968;BME280;46511;53.148;8.204;2023-02-21T05:16:27;101607.69;;;10.94;100.00
48968;BME280;46511;53.148;8.204;2023-02-21T05:18:58;101607.13;;;11.25;100.00
48968;BME280;46511;53.148;8.204;2023-02-21T05:21:33;101602.16;;;11.36;100.00
48968;BME280;46511;53.148;8.204;2023-02-21T05:24:05;101603.66;;;11.04;100.00
48968;BME280;46511;53.148;8.204;2023-02-21T05:26:37;101606.56;;;10.99;100.00
48968;BME280;46511;53.148;8.204;2023-02-21T05:29:08;101611.06;;;10.97;100.00
48968;BME280;46511;53.148;8.204;2023-02-21T05:31:39;101614.94;;;10.90;100.00
48968;BME280;46511;53.148;8.204;2023-02-21T05:34:11;101614.69;;;10.76;100.00
48968;BME280;46511;53.148;8.204;2023-02-21T05:36:42;101618.50;;;10.89;100.00
48968;BME280;46511;53.148;8.204;2023-02-21T05:39:14;101618.34;;;11.12;100.00
48968;BME280;46511;53.148;8.204;2023-02-21T05:41:46;101616.84;;;10.86;100.00
48968;BME280;46511;53.148;8.204;2023-02-21T05:44:23;101618.50;;;11.09;100.00
48968;BME280;46511;53.148;8.204;2023-02-21T05:46:54;101626.81;;;11.02;100.00
48968;BME280;46511;53.148;8.204;2023-02-21T05:49:25;101622.50;;;10.99;100.00
48968;BME280;46511;53.148;8.204;2023-02-21T05:51:57;101627.09;;;11.14;100.00
48968;BME280;46511;53.148;8.204;2023-02-21T05:54:28;101618.94;;;11.19;100.00
48968;BME280;46511;53.148;8.204;2023-02-21T05:57:00;101620.63;;;11.01;100.00
48968;BME280;46511;53.148;8.204;2023-02-21T05:59:31;101615.97;;;11.25;100.00
48968;BME280;46511;53.148;8.204;2023-02-21T06:02:02;101620.75;;;10.98;100.00
48968;BME280;46511;53.148;8.204;2023-02-21T06:04:34;101621.31;;;10.86;100.00
48968;BME280;46511;53.148;8.204;2023-02-21T06:07:05;101621.31;;;10.86;100.00
48968;BME280;46511;53.148;8.204;2023-02-21T06:09:37;101624.38;;;11.16;100.00
48968;BME280;46511;53.148;8.204;2023-02-21T06:12:08;101624.53;;;11.13;100.00
48968;BME280;46511;53.148;8.204;2023-02-21T06:14:39;101622.34;;;11.02;100.00
48968;BME280;46511;53.148;8.204;2023-02-21T06:17:10;101617.81;;;11.04;100.00
48968;BME280;46511;53.148;8.204;2023-02-21T06:19:42;101616.38;;;10.97;100.00
48968;BME280;46511;53.148;8.204;2023-02-21T06:22:13;101611.31;;;11.11;100.00
48968;BME280;46511;53.148;8.204;2023-02-21T06:24:44;101616.13;;;10.83;100.00
48968;BME280;46511;53.148;8.204;2023-02-21T06:27:15;101599.38;;;11.01;100.00
48968;BME280;46511;53.148;8.204;2023-02-21T06:29:47;101612.88;;;10.76;100.00
48968;BME280;46511;53.148;8.204;2023-02-21T06:32:18;101618.56;;;10.87;100.00
48968;BME280;46511;53.148;8.204;2023-02-21T06:34:49;101612.66;;;11.01;100.00
48968;BME280;46511;53.148;8.204;2023-02-21T06:37:16;101616.88;;;11.05;100.00
48968;BME280;46511;53.148;8.204;2023-02-21T06:39:49;101622.34;;;11.02;100.00
48968;BME280;46511;53.148;8.204;2023-02-21T06:42:20;101620.41;;;11.06;100.00
48968;BME280;46511;53.148;8.204;2023-02-21T06:44:52;101624.34;;;10.97;100.00
48968;BME280;46511;53.148;8.204;2023-02-21T06:47:19;101631.38;;;10.98;100.00
48968;BME280;46511;53.148;8.204;2023-02-21T06:49:50;101626.38;;;10.92;100.00
48968;BME280;46511;53.148;8.204;2023-02-21T06:52:21;101628.88;;;10.95;100.00
48968;BME280;46511;53.148;8.204;2023-02-21T06:54:52;101632.56;;;11.11;100.00
48968;BME280;46511;53.148;8.204;2023-02-21T06:57:24;101637.84;;;10.93;100.00
48968;BME280;46511;53.148;8.204;2023-02-21T06:59:55;101640.69;;;10.88;100.00
48968;BME280;46511;53.148;8.204;2023-02-21T07:02:26;101638.13;;;11.26;100.00
48968;BME280;46511;53.148;8.204;2023-02-21T07:04:58;101646.47;;;11.37;100.00
48968;BME280;46511;53.148;8.204;2023-02-21T07:07:29;101646.25;;;11.41;100.00
48968;BME280;46511;53.148;8.204;2023-02-21T07:10:00;101649.09;;;10.99;100.00
48968;BME280;46511;53.148;8.204;2023-02-21T07:12:31;101653.66;;;11.35;100.00
48968;BME280;46511;53.148;8.204;2023-02-21T07:15:03;101649.56;;;11.28;100.00
48968;BME280;46511;53.148;8.204;2023-02-21T07:17:34;101653.31;;;11.42;100.00
48968;BME280;46511;53.148;8.204;2023-02-21T07:20:06;101655.25;;;11.39;100.00
48968;BME280;46511;53.148;8.204;2023-02-21T07:22:37;101646.94;;;11.26;100.00
48968;BME280;46511;53.148;8.204;2023-02-21T07:25:12;101646.03;;;11.46;100.00
48968;BME280;46511;53.148;8.204;2023-02-21T07:27:46;101654.44;;;11.37;100.00
48968;BME280;46511;53.148;8.204;2023-02-21T07:30:18;101646.84;;;11.29;100.00
48968;BME280;46511;53.148;8.204;2023-02-21T07:32:49;101658.34;;;11.30;100.00
48968;BME280;46511;53.148;8.204;2023-02-21T07:35:20;101653.88;;;11.30;100.00
48968;BME280;46511;53.148;8.204;2023-02-21T07:37:51;101664.53;;;11.49;100.00
48968;BME280;46511;53.148;8.204;2023-02-21T07:40:23;101653.19;;;11.06;100.00
48968;BME280;46511;53.148;8.204;2023-02-21T07:42:54;101661.09;;;11.47;100.00
48968;BME280;46511;53.148;8.204;2023-02-21T07:45:25;101662.94;;;11.06;100.00
48968;BME280;46511;53.148;8.204;2023-02-21T07:47:56;101664.50;;;11.11;100.00
48968;BME280;46511;53.148;8.204;2023-02-21T07:50:28;101666.81;;;11.19;100.00
48968;BME280;46511;53.148;8.204;2023-02-21T07:52:59;101668.41;;;11.61;100.00
48968;BME280;46511;53.148;8.204;2023-02-21T07:55:30;101667.91;;;11.71;100.00
48968;BME280;46511;53.148;8.204;2023-02-21T07:58:03;101670.84;;;11.65;100.00
48968;BME280;46511;53.148;8.204;2023-02-21T08:00:35;101673.22;;;11.53;100.00
48968;BME280;46511;53.148;8.204;2023-02-21T08:03:06;101685.47;;;11.38;100.00
48968;BME280;46511;53.148;8.204;2023-02-21T08:05:37;101680.81;;;11.81;100.00
48968;BME280;46511;53.148;8.204;2023-02-21T08:08:09;101683.31;;;11.84;100.00
48968;BME280;46511;53.148;8.204;2023-02-21T08:10:40;101687.28;;;11.75;100.00
48968;BME280;46511;53.148;8.204;2023-02-21T08:13:11;101696.78;;;11.81;100.00
48968;BME280;46511;53.148;8.204;2023-02-21T08:15:43;101700.09;;;11.86;100.00
48968;BME280;46511;53.148;8.204;2023-02-21T08:18:15;101698.28;;;11.09;100.00
48968;BME280;46511;53.148;8.204;2023-02-21T08:20:50;101712.97;;;11.37;100.00
48968;BME280;46511;53.148;8.204;2023-02-21T08:23:22;101718.44;;;11.34;100.00
48968;BME280;46511;53.148;8.204;2023-02-21T08:25:54;101712.44;;;11.68;100.00
48968;BME280;46511;53.148;8.204;2023-02-21T08:28:25;101711.00;;;11.61;100.00
48968;BME280;46511;53.148;8.204;2023-02-21T08:30:56;101715.59;;;11.57;100.00
48968;BME280;46511;53.148;8.204;2023-02-21T08:33:28;101709.69;;;11.51;100.00
48968;BME280;46511;53.148;8.204;2023-02-21T08:35:59;101705.41;;;11.67;100.00
48968;BME280;46511;53.148;8.204;2023-02-21T08:38:25;101708.44;;;11.97;100.00
48968;BME280;46511;53.148;8.204;2023-02-21T08:40:57;101711.44;;;11.70;100.00
48968;BME280;46511;53.148;8.204;2023-02-21T08:43:23;101709.13;;;11.63;100.00
48968;BME280;46511;53.148;8.204;2023-02-21T08:45:55;101716.09;;;11.47;100.00
48968;BME280;46511;53.148;8.204;2023-02-21T08:48:26;101718.94;;;12.00;100.00
48968;BME280;46511;53.148;8.204;2023-02-21T08:50:57;101713.53;;;11.83;100.00
48968;BME280;46511;53.148;8.204;2023-02-21T08:53:29;101717.50;;;11.93;100.00
48968;BME280;46511;53.148;8.204;2023-02-21T08:56:00;101711.25;;;11.94;100.00
48968;BME280;46511;53.148;8.204;2023-02-21T08:58:31;101716.34;;;12.17;100.00
48968;BME280;46511;53.148;8.204;2023-02-21T09:01:03;101706.81;;;11.74;100.00
48968;BME280;46511;53.148;8.204;2023-02-21T09:03:36;101715.03;;;11.69;100.00
48968;BME280;46511;53.148;8.204;2023-02-21T09:06:07;101719.38;;;11.91;100.00
48968;BME280;46511;53.148;8.204;2023-02-21T09:08:39;101711.81;;;12.00;100.00
48968;BME280;46511;53.148;8.204;2023-02-21T09:11:11;101711.09;;;11.97;100.00
48968;BME280;46511;53.148;8.204;2023-02-21T09:13:42;101710.09;;;11.81;100.00
48968;BME280;46511;53.148;8.204;2023-02-21T09:16:13;101712.31;;;11.90;100.00
48968;BME280;46511;53.148;8.204;2023-02-21T09:18:51;101705.56;;;11.83;100.00
48968;BME280;46511;53.148;8.204;2023-02-21T09:21:24;101711.63;;;11.86;100.00
48968;BME280;46511;53.148;8.204;2023-02-21T09:23:55;101718.34;;;12.48;100.00
48968;BME280;46511;53.148;8.204;2023-02-21T09:26:27;101715.97;;;12.25;100.00
48968;BME280;46511;53.148;8.204;2023-02-21T09:29:01;101710.66;;;12.59;100.00
48968;BME280;46511;53.148;8.204;2023-02-21T09:31:33;101715.03;;;12.79;100.00
48968;BME280;46511;53.148;8.204;2023-02-21T09:34:04;101707.00;;;12.45;100.00
48968;BME280;46511;53.148;8.204;2023-02-21T09:36:35;101710.75;;;12.58;100.00
48968;BME280;46511;53.148;8.204;2023-02-21T09:39:06;101714.75;;;12.49;100.00
48968;BME280;46511;53.148;8.204;2023-02-21T09:41:38;101707.34;;;12.91;100.00
48968;BME280;46511;53.148;8.204;2023-02-21T09:44:17;101708.28;;;12.90;100.00
48968;BME280;46511;53.148;8.204;2023-02-21T09:46:54;101703.25;;;12.66;100.00
48968;BME280;46511;53.148;8.204;2023-02-21T09:49:32;101714.22;;;12.77;100.00
48968;BME280;46511;53.148;8.204;2023-02-21T09:52:15;101720.50;;;12.94;100.00
48968;BME280;46511;53.148;8.204;2023-02-21T09:54:53;101716.88;;;12.77;100.00
48968;BME280;46511;53.148;8.204;2023-02-21T09:57:28;101717.22;;;12.71;100.00
48968;BME280;46511;53.148;8.204;2023-02-21T09:59:59;101712.56;;;12.92;100.00
48968;BME280;46511;53.148;8.204;2023-02-21T10:08:25;101717.69;;;12.79;100.00
48968;BME280;46511;53.148;8.204;2023-02-21T10:17:30;101725.66;;;13.14;100.00
48968;BME280;46511;53.148;8.204;2023-02-21T10:20:27;101726.00;;;13.08;100.00
48968;BME280;46511;53.148;8.204;2023-02-21T10:23:36;101715.75;;;13.33;100.00
48968;BME280;46511;53.148;8.204;2023-02-21T10:26:11;101722.22;;;13.12;100.00
48968;BME280;46511;53.148;8.204;2023-02-21T10:28:46;101726.94;;;12.90;100.00
48968;BME280;46511;53.148;8.204;2023-02-21T10:34:08;101735.84;;;12.54;100.00
48968;BME280;46511;53.148;8.204;2023-02-21T10:36:50;101734.78;;;12.93;100.00
48968;BME280;46511;53.148;8.204;2023-02-21T10:40:05;101740.28;;;12.90;100.00
48968;BME280;46511;53.148;8.204;2023-02-21T10:45:13;101743.19;;;13.53;100.00
48968;BME280;46511;53.148;8.204;2023-02-21T10:47:58;101736.66;;;12.73;100.00
48968;BME280;46511;53.148;8.204;2023-02-21T10:50:37;101734.44;;;12.64;100.00
48968;BME280;46511;53.148;8.204;2023-02-21T10:53:25;101742.78;;;12.93;100.00
48968;BME280;46511;53.148;8.204;2023-02-21T11:01:31;101747.22;;;13.77;100.00
48968;BME280;46511;53.148;8.204;2023-02-21T11:06:47;101744.78;;;13.72;100.00
48968;BME280;46511;53.148;8.204;2023-02-21T11:09:29;101743.41;;;13.81;100.00
48968;BME280;46511;53.148;8.204;2023-02-21T11:17:27;101735.88;;;14.05;100.00
48968;BME280;46511;53.148;8.204;2023-02-21T11:20:18;101733.28;;;13.88;100.00
48968;BME280;46511;53.148;8.204;2023-02-21T11:22:50;101744.13;;;13.52;100.00
48968;BME280;46511;53.148;8.204;2023-02-21T11:30:41;101740.28;;;13.57;100.00
48968;BME280;46511;53.148;8.204;2023-02-21T11:33:21;101742.72;;;13.78;100.00
48968;BME280;46511;53.148;8.204;2023-02-21T11:36:05;101736.91;;;14.03;100.00
48968;BME280;46511;53.148;8.204;2023-02-21T11:38:42;101730.78;;;13.85;100.00
48968;BME280;46511;53.148;8.204;2023-02-21T11:41:27;101745.91;;;13.18;100.00
48968;BME280;46511;53.148;8.204;2023-02-21T11:44:21;101738.41;;;13.59;100.00
48968;BME280;46511;53.148;8.204;2023-02-21T11:55:22;101742.75;;;14.09;100.00
48968;BME280;46511;53.148;8.204;2023-02-21T12:09:44;101723.91;;;14.74;100.00
48968;BME280;46511;53.148;8.204;2023-02-21T12:15:23;101712.03;;;14.64;100.00
48968;BME280;46511;53.148;8.204;2023-02-21T12:29:28;101709.06;;;14.07;100.00
48968;BME280;46511;53.148;8.204;2023-02-21T12:43:49;101705.16;;;14.28;100.00
48968;BME280;46511;53.148;8.204;2023-02-21T12:46:31;101700.66;;;14.44;100.00
48968;BME280;46511;53.148;8.204;2023-02-21T12:52:23;101693.59;;;14.43;100.00
48968;BME280;46511;53.148;8.204;2023-02-21T12:57:58;101692.94;;;14.08;100.00
48968;BME280;46511;53.148;8.204;2023-02-21T13:00:35;101694.84;;;14.22;100.00
48968;BME280;46511;53.148;8.204;2023-02-21T13:06:13;101690.81;;;14.61;100.00
48968;BME280;46511;53.148;8.204;2023-02-21T13:17:21;101692.94;;;13.92;100.00
48968;BME280;46511;53.148;8.204;2023-02-21T13:19:54;101696.28;;;14.12;100.00
48968;BME280;46511;53.148;8.204;2023-02-21T13:28:50;101688.25;;;14.12;100.00
48968;BME280;46511;53.148;8.204;2023-02-21T13:31:32;101685.19;;;14.04;100.00
48968;BME280;46511;53.148;8.204;2023-02-21T13:34:08;101685.91;;;14.37;100.00
48968;BME280;46511;53.148;8.204;2023-02-21T13:36:45;101677.25;;;14.18;100.00
48968;BME280;46511;53.148;8.204;2023-02-21T13:39:19;101680.88;;;14.01;100.00
48968;BME280;46511;53.148;8.204;2023-02-21T13:42:04;101679.00;;;13.87;100.00
48968;BME280;46511;53.148;8.204;2023-02-21T13:44:40;101678.66;;;13.93;100.00
48968;BME280;46511;53.148;8.204;2023-02-21T13:47:16;101666.75;;;13.99;100.00
48968;BME280;46511;53.148;8.204;2023-02-21T13:49:50;101667.09;;;13.77;100.00
48968;BME280;46511;53.148;8.204;2023-02-21T13:52:24;101673.31;;;13.29;100.00
48968;BME280;46511;53.148;8.204;2023-02-21T13:58:42;101667.16;;;13.60;100.00
48968;BME280;46511;53.148;8.204;2023-02-21T14:08:41;101669.03;;;14.67;100.00
48968;BME280;46511;53.148;8.204;2023-02-21T14:11:17;101659.09;;;14.39;100.00
48968;BME280;46511;53.148;8.204;2023-02-21T14:13:55;101659.78;;;13.96;100.00
48968;BME280;46511;53.148;8.204;2023-02-21T14:16:45;101657.75;;;14.16;100.00
48968;BME280;46511;53.148;8.204;2023-02-21T14:19:23;101653.47;;;13.82;100.00
48968;BME280;46511;53.148;8.204;2023-02-21T14:21:58;101654.94;;;13.71;100.00
48968;BME280;46511;53.148;8.204;2023-02-21T14:24:34;101660.88;;;13.92;100.00
48968;BME280;46511;53.148;8.204;2023-02-21T14:53:56;101656.38;;;14.09;100.00
48968;BME280;46511;53.148;8.204;2023-02-21T14:56:45;101647.28;;;13.97;100.00
48968;BME280;46511;53.148;8.204;2023-02-21T15:02:34;101644.50;;;14.14;100.00
48968;BME280;46511;53.148;8.204;2023-02-21T15:05:21;101641.59;;;13.71;100.00
48968;BME280;46511;53.148;8.204;2023-02-21T15:08:16;101644.50;;;13.98;100.00
48968;BME280;46511;53.148;8.204;2023-02-21T15:10:50;101645.66;;;13.94;100.00
48968;BME280;46511;53.148;8.204;2023-02-21T15:13:27;101645.50;;;14.27;100.00
48968;BME280;46511;53.148;8.204;2023-02-21T15:18:40;101649.25;;;14.39;100.00
48968;BME280;46511;53.148;8.204;2023-02-21T15:21:26;101641.97;;;14.11;100.00
48968;BME280;46511;53.148;8.204;2023-02-21T15:24:10;101652.22;;;14.19;100.00
48968;BME280;46511;53.148;8.204;2023-02-21T15:26:43;101648.47;;;13.91;100.00
48968;BME280;46511;53.148;8.204;2023-02-21T15:29:15;101656.75;;;13.71;100.00
48968;BME280;46511;53.148;8.204;2023-02-21T15:31:48;101658.03;;;13.64;100.00
48968;BME280;46511;53.148;8.204;2023-02-21T15:34:25;101653.31;;;13.69;100.00
48968;BME280;46511;53.148;8.204;2023-02-21T15:39:37;101655.00;;;13.38;100.00
48968;BME280;46511;53.148;8.204;2023-02-21T15:42:13;101651.91;;;13.62;100.00
48968;BME280;46511;53.148;8.204;2023-02-21T15:44:53;101656.66;;;13.57;100.00
48968;BME280;46511;53.148;8.204;2023-02-21T15:47:28;101649.09;;;13.65;100.00
48968;BME280;46511;53.148;8.204;2023-02-21T15:50:11;101652.97;;;13.75;100.00
48968;BME280;46511;53.148;8.204;2023-02-21T15:52:49;101645.81;;;13.76;100.00
48968;BME280;46511;53.148;8.204;2023-02-21T15:58:01;101662.56;;;13.30;100.00
48968;BME280;46511;53.148;8.204;2023-02-21T16:00:37;101657.06;;;13.33;100.00
48968;BME280;46511;53.148;8.204;2023-02-21T16:03:25;101664.47;;;13.28;100.00
48968;BME280;46511;53.148;8.204;2023-02-21T16:11:41;101661.25;;;13.22;100.00
48968;BME280;46511;53.148;8.204;2023-02-21T16:14:17;101662.59;;;12.96;100.00
48968;BME280;46511;53.148;8.204;2023-02-21T16:20:01;101672.50;;;12.76;100.00
48968;BME280;46511;53.148;8.204;2023-02-21T16:22:49;101662.75;;;12.93;100.00
48968;BME280;46511;53.148;8.204;2023-02-21T16:26:01;101666.53;;;12.88;100.00
48968;BME280;46511;53.148;8.204;2023-02-21T16:28:46;101665.91;;;12.83;100.00
48968;BME280;46511;53.148;8.204;2023-02-21T16:33:59;101666.88;;;12.65;100.00
48968;BME280;46511;53.148;8.204;2023-02-21T16:36:31;101674.09;;;12.80;100.00
48968;BME280;46511;53.148;8.204;2023-02-21T16:39:02;101667.81;;;12.81;100.00
48968;BME280;46511;53.148;8.204;2023-02-21T16:41:34;101677.06;;;12.74;100.00
48968;BME280;46511;53.148;8.204;2023-02-21T16:44:05;101674.09;;;12.80;100.00
48968;BME280;46511;53.148;8.204;2023-02-21T16:46:36;101672.03;;;12.85;100.00
48968;BME280;46511;53.148;8.204;2023-02-21T16:49:08;101678.69;;;12.77;100.00
48968;BME280;46511;53.148;8.204;2023-02-21T16:51:41;101682.47;;;12.73;100.00
48968;BME280;46511;53.148;8.204;2023-02-21T16:54:13;101685.91;;;12.75;100.00
48968;BME280;46511;53.148;8.204;2023-02-21T16:56:45;101682.22;;;12.60;100.00